createdAt,value
2023-04-08T00:00:50.459Z,146.70
2023-04-08T00:03:18.994Z,147.70
2023-04-08T00:05:47.000Z,147.77
2023-04-08T00:08:14.845Z,147.73
2023-04-08T00:10:42.783Z,146.60
2023-04-08T00:13:10.618Z,147.40
2023-04-08T00:15:38.584Z,147.33
2023-04-08T00:18:08.359Z,147.13
2023-04-08T00:20:36.268Z,147.97
2023-04-08T00:23:04.096Z,148.03
2023-04-08T00:25:32.101Z,147.80
2023-04-08T00:27:59.910Z,147.77
2023-04-08T00:30:28.448Z,147.97
2023-04-08T00:32:56.311Z,148.03
2023-04-08T00:35:25.694Z,147.43
2023-04-08T00:37:53.544Z,147.90
2023-04-08T00:40:21.533Z,147.57
2023-04-08T00:42:49.338Z,147.60
2023-04-08T00:45:17.213Z,147.67
2023-04-08T00:47:46.557Z,147.57
2023-04-08T00:50:14.391Z,147.73
2023-04-08T00:52:43.520Z,147.87
2023-04-08T00:55:11.373Z,147.20
2023-04-08T00:57:39.345Z,147.20
2023-04-08T01:00:09.443Z,147.83
2023-04-08T01:02:44.222Z,147.50
2023-04-08T01:05:16.878Z,147.50
2023-04-08T01:07:49.331Z,148.07
2023-04-08T01:10:21.109Z,147.10
2023-04-08T01:12:52.785Z,147.57
2023-04-08T01:15:21.228Z,147.83
2023-04-08T01:17:51.331Z,146.97
2023-04-08T01:20:20.399Z,146.87
2023-04-08T01:23:04.689Z,147.73
2023-04-08T01:25:34.049Z,147.53
2023-04-08T01:28:06.604Z,146.53
2023-04-08T01:30:36.463Z,147.00
2023-04-08T01:33:06.387Z,147.03
2023-04-08T01:35:34.739Z,146.73
2023-04-08T01:38:04.000Z,146.80
2023-04-08T01:40:33.382Z,147.23
2023-04-08T01:43:03.961Z,146.90
2023-04-08T01:45:32.262Z,147.20
2023-04-08T01:48:02.249Z,147.00
2023-04-08T01:50:32.696Z,147.17
2023-04-08T01:53:01.979Z,147.20
2023-04-08T01:55:30.175Z,146.60
2023-04-08T01:58:01.393Z,146.50
2023-04-08T02:00:31.842Z,147.57
2023-04-08T02:03:01.992Z,147.27
2023-04-08T02:05:30.101Z,147.13
2023-04-08T02:07:57.922Z,147.13
2023-04-08T02:10:25.877Z,146.77
2023-04-08T02:12:53.763Z,146.70
2023-04-08T02:15:21.844Z,147.13
2023-04-08T02:17:54.233Z,146.97
2023-04-08T02:20:25.204Z,146.70
2023-04-08T02:23:00.779Z,147.40
2023-04-08T02:25:30.962Z,146.93
2023-04-08T02:28:01.823Z,147.20
2023-04-08T02:30:30.515Z,147.10
2023-04-08T02:33:02.655Z,147.10
2023-04-08T02:35:30.951Z,147.10
2023-04-08T02:37:58.783Z,147.43
2023-04-08T02:40:27.898Z,146.80
2023-04-08T02:42:57.366Z,146.20
2023-04-08T02:45:29.265Z,146.97
2023-04-08T02:47:57.164Z,146.47
2023-04-08T02:50:26.426Z,146.27
2023-04-08T02:52:54.245Z,147.00
2023-04-08T02:55:22.079Z,146.43
2023-04-08T02:57:50.222Z,146.70
2023-04-08T03:00:18.487Z,146.97
2023-04-08T03:02:46.581Z,146.77
2023-04-08T03:05:16.202Z,146.43
2023-04-08T03:07:45.357Z,147.37
2023-04-08T03:10:13.158Z,147.33
2023-04-08T03:12:41.047Z,147.00
2023-04-08T03:15:09.574Z,147.23
2023-04-08T03:17:37.677Z,147.07
2023-04-08T03:20:06.845Z,147.20
2023-04-08T03:22:35.159Z,146.90
2023-04-08T03:25:04.498Z,146.67
2023-04-08T03:27:32.377Z,147.33
2023-04-08T03:30:00.286Z,147.37
2023-04-08T03:32:28.587Z,147.27
2023-04-08T03:34:56.419Z,147.60
2023-04-08T03:37:24.264Z,146.93
2023-04-08T03:39:52.062Z,147.23
2023-04-08T03:42:21.242Z,147.30
2023-04-08T03:44:49.050Z,147.20
2023-04-08T03:47:16.853Z,147.07
2023-04-08T03:49:44.692Z,147.10
2023-04-08T03:52:12.496Z,146.77
2023-04-08T03:54:40.499Z,147.20
2023-04-08T03:57:08.307Z,146.93
2023-04-08T03:59:37.442Z,147.03
2023-04-08T04:02:05.470Z,147.10
2023-04-08T04:04:33.751Z,147.07
2023-04-08T04:07:01.609Z,147.13
2023-04-08T04:09:29.419Z,146.93
2023-04-08T04:11:57.256Z,147.20
2023-04-08T04:14:25.062Z,147.67
2023-04-08T04:16:54.229Z,147.90
2023-04-08T04:19:22.059Z,147.33
2023-04-08T04:21:49.873Z,147.07
2023-04-08T04:24:17.704Z,147.37
2023-04-08T04:26:45.584Z,147.07
2023-04-08T04:29:13.395Z,147.67
2023-04-08T04:31:41.995Z,145.57
2023-04-08T04:34:11.271Z,145.20
2023-04-08T04:36:39.055Z,143.43
2023-04-08T04:39:06.850Z,143.70
2023-04-08T04:41:38.726Z,142.40
2023-04-08T04:44:06.853Z,141.97
2023-04-08T04:46:34.790Z,142.07
2023-04-08T04:49:02.639Z,141.13
2023-04-08T04:51:33.972Z,141.50
2023-04-08T04:54:01.797Z,140.63
2023-04-08T04:56:29.611Z,140.33
2023-04-08T04:58:57.405Z,140.50
2023-04-08T05:01:25.723Z,140.23
2023-04-08T05:03:53.594Z,139.80
2023-04-08T05:06:21.397Z,140.40
2023-04-08T05:08:51.723Z,139.90
2023-04-08T05:11:21.720Z,139.77
2023-04-08T05:13:49.779Z,139.33
2023-04-08T05:16:17.754Z,139.97
2023-04-08T05:18:45.773Z,139.50
2023-04-08T05:21:13.572Z,139.10
2023-04-08T05:23:41.382Z,139.63
2023-04-08T05:26:10.581Z,139.37
2023-04-08T05:28:38.374Z,139.33
2023-04-08T05:31:06.382Z,139.40
2023-04-08T05:33:34.194Z,139.13
2023-04-08T05:36:02.665Z,139.37
2023-04-08T05:38:30.774Z,138.73
2023-04-08T05:40:58.568Z,139.30
2023-04-08T05:43:27.723Z,139.33
2023-04-08T05:45:55.543Z,139.47
2023-04-08T05:48:23.351Z,139.33
2023-04-08T05:50:51.224Z,139.00
2023-04-08T05:53:19.030Z,139.13
2023-04-08T05:55:46.807Z,139.07
2023-04-08T05:58:14.650Z,139.53
2023-04-08T06:00:43.856Z,138.63
2023-04-08T06:03:11.815Z,139.00
2023-04-08T06:05:39.769Z,138.23
2023-04-08T06:08:07.741Z,139.13
2023-04-08T06:10:35.697Z,138.77
2023-04-08T06:13:03.504Z,138.87
2023-04-08T06:15:32.448Z,138.60
2023-04-08T06:18:01.654Z,138.87
2023-04-08T06:20:30.280Z,138.93
2023-04-08T06:22:58.108Z,138.33
2023-04-08T06:25:25.902Z,138.50
2023-04-08T06:27:53.681Z,139.20
2023-04-08T06:30:21.763Z,139.63
2023-04-08T06:32:49.598Z,139.07
2023-04-08T06:35:19.013Z,139.53
2023-04-08T06:37:46.845Z,139.37
2023-04-08T06:40:14.773Z,139.60
2023-04-08T06:42:44.411Z,139.83
2023-04-08T06:45:42.799Z,139.50
2023-04-08T06:48:10.744Z,139.07
2023-04-08T06:50:39.963Z,139.57
2023-04-08T06:53:07.779Z,139.60
2023-04-08T06:55:35.586Z,139.43
2023-04-08T06:58:03.398Z,138.83
2023-04-08T07:00:31.455Z,139.77
2023-04-08T07:02:59.410Z,139.10
2023-04-08T07:05:27.295Z,140.10
2023-04-08T07:07:56.524Z,138.40
2023-04-08T07:10:24.312Z,139.80
2023-04-08T07:12:52.553Z,139.00
2023-04-08T07:15:20.699Z,139.67
2023-04-08T07:17:48.559Z,139.30
2023-04-08T07:20:16.588Z,139.33
2023-04-08T07:22:44.389Z,139.73
2023-04-08T07:25:13.530Z,139.07
2023-04-08T07:27:41.310Z,139.50
2023-04-08T07:30:10.063Z,139.47
2023-04-08T07:32:37.969Z,139.00
2023-04-08T07:35:06.548Z,138.47
2023-04-08T07:37:34.357Z,139.47
2023-04-08T07:40:02.161Z,139.07
2023-04-08T07:42:31.818Z,139.07
2023-04-08T07:44:59.610Z,138.87
2023-04-08T07:47:27.486Z,139.23
2023-04-08T07:49:55.473Z,139.33
2023-04-08T07:52:23.302Z,138.97
2023-04-08T07:54:51.117Z,139.40
2023-04-08T07:57:19.175Z,139.07
2023-04-08T07:59:48.600Z,138.90
2023-04-08T08:02:16.460Z,139.50
2023-04-08T08:04:44.616Z,139.17
2023-04-08T08:07:12.626Z,140.20
2023-04-08T08:09:40.439Z,139.00
2023-04-08T08:12:08.258Z,140.03
2023-04-08T08:14:36.050Z,140.17
2023-04-08T08:17:06.141Z,139.83
2023-04-08T08:19:33.954Z,140.33
2023-04-08T08:22:01.742Z,139.83
2023-04-08T08:24:29.533Z,140.60
2023-04-08T08:26:57.626Z,140.30
2023-04-08T08:29:25.459Z,140.40
2023-04-08T08:31:53.252Z,140.07
2023-04-08T08:34:22.410Z,139.83
2023-04-08T08:36:50.211Z,140.47
2023-04-08T08:39:18.007Z,140.20
2023-04-08T08:41:45.902Z,140.27
2023-04-08T08:44:14.190Z,139.93
2023-04-08T08:46:45.368Z,140.63
2023-04-08T08:49:13.566Z,140.00
2023-04-08T08:51:42.956Z,140.40
2023-04-08T08:54:10.767Z,140.37
2023-04-08T08:56:38.559Z,140.13
2023-04-08T08:59:06.465Z,140.10
2023-04-08T09:01:36.186Z,140.17
2023-04-08T09:04:09.432Z,139.90
2023-04-08T09:06:37.670Z,140.17
2023-04-08T09:09:10.205Z,140.57
2023-04-08T09:11:39.692Z,140.53
2023-04-08T09:14:18.202Z,140.10
2023-04-08T09:16:46.567Z,140.73
2023-04-08T09:19:15.027Z,140.37
2023-04-08T09:21:43.687Z,141.80
2023-04-08T09:24:31.081Z,140.93
2023-04-08T09:26:59.423Z,141.07
2023-04-08T09:29:30.586Z,141.10
2023-04-08T09:32:01.470Z,140.90
2023-04-08T09:34:32.226Z,141.07
2023-04-08T09:37:00.129Z,141.73
2023-04-08T09:39:28.194Z,141.40
2023-04-08T09:42:00.993Z,141.73
2023-04-08T09:44:31.040Z,141.77
2023-04-08T09:47:07.211Z,142.03
2023-04-08T09:49:39.185Z,143.07
2023-04-08T09:52:11.973Z,142.40
2023-04-08T09:54:45.523Z,142.57
2023-04-08T09:57:22.879Z,141.90
2023-04-08T09:59:58.390Z,141.20
2023-04-08T10:02:32.011Z,141.97
2023-04-08T10:05:01.386Z,141.40
2023-04-08T10:07:29.262Z,141.20
2023-04-08T10:09:58.911Z,141.47
2023-04-08T10:12:28.099Z,141.53
2023-04-08T10:15:27.788Z,141.83
2023-04-08T10:17:56.913Z,141.50
2023-04-08T10:20:44.798Z,140.90
2023-04-08T10:23:13.999Z,141.00
2023-04-08T10:25:42.730Z,141.70
2023-04-08T10:28:27.587Z,141.90
2023-04-08T10:30:57.240Z,142.03
2023-04-08T10:33:34.546Z,141.73
2023-04-08T10:36:11.121Z,141.60
2023-04-08T10:38:39.346Z,142.17
2023-04-08T10:41:07.195Z,142.00
2023-04-08T10:43:37.374Z,141.73
2023-04-08T10:46:06.279Z,141.77
2023-04-08T10:48:34.108Z,141.83
2023-04-08T10:51:03.613Z,141.93
2023-04-08T10:53:33.421Z,142.10
2023-04-08T10:56:10.851Z,142.27
2023-04-08T10:58:49.425Z,142.50
2023-04-08T11:01:17.321Z,142.70
2023-04-08T11:03:45.806Z,142.57
2023-04-08T11:06:13.756Z,143.07
2023-04-08T11:08:41.611Z,142.57
2023-04-08T11:11:10.859Z,142.37
2023-04-08T11:13:46.443Z,142.53
2023-04-08T11:16:21.870Z,143.27
2023-04-08T11:18:49.899Z,143.60
2023-04-08T11:21:18.251Z,143.03
2023-04-08T11:23:46.349Z,142.93
2023-04-08T11:26:16.179Z,143.60
2023-04-08T11:28:46.259Z,143.07
2023-04-08T11:31:14.484Z,142.43
2023-04-08T11:33:47.224Z,142.80
2023-04-08T11:36:15.826Z,143.40
2023-04-08T11:38:43.709Z,143.23
2023-04-08T11:41:12.202Z,143.03
2023-04-08T11:43:40.928Z,143.07
2023-04-08T11:46:15.060Z,143.33
2023-04-08T11:48:42.927Z,143.23
2023-04-08T11:51:11.048Z,143.80
2023-04-08T11:53:39.017Z,144.40
2023-04-08T11:56:20.387Z,143.33
2023-04-08T11:58:48.719Z,143.33
2023-04-08T12:01:17.903Z,143.73
2023-04-08T12:03:59.473Z,143.67
2023-04-08T12:06:28.100Z,143.60
2023-04-08T12:08:56.999Z,143.23
2023-04-08T12:11:25.099Z,143.33
2023-04-08T12:13:53.714Z,143.50
2023-04-08T12:16:23.190Z,144.20
2023-04-08T12:18:51.094Z,144.20
2023-04-08T12:21:18.909Z,144.13
2023-04-08T12:23:46.791Z,144.07
2023-04-08T12:26:14.626Z,144.00
2023-04-08T12:28:42.435Z,144.00
2023-04-08T12:31:10.282Z,143.47
2023-04-08T12:33:39.513Z,143.80
2023-04-08T12:36:07.614Z,142.60
2023-04-08T12:38:35.479Z,144.17
2023-04-08T12:41:03.490Z,145.43
2023-04-08T12:43:32.712Z,147.03
2023-04-08T12:46:01.530Z,147.60
2023-04-08T12:48:29.431Z,148.93
2023-04-08T12:50:58.721Z,149.30
2023-04-08T12:53:26.635Z,149.27
2023-04-08T12:55:56.973Z,150.20
2023-04-08T12:58:25.615Z,150.83
2023-04-08T13:00:53.561Z,150.83
2023-04-08T13:03:21.502Z,151.53
2023-04-08T13:05:49.477Z,151.33
2023-04-08T13:08:19.140Z,151.40
2023-04-08T13:10:47.172Z,152.10
2023-04-08T13:13:14.978Z,152.77
2023-04-08T13:15:43.667Z,152.30
2023-04-08T13:18:11.496Z,152.03
2023-04-08T13:20:39.392Z,152.87
2023-04-08T13:23:07.211Z,152.53
2023-04-08T13:25:36.351Z,152.27
2023-04-08T13:28:04.502Z,152.53
2023-04-08T13:30:32.334Z,152.13
2023-04-08T13:33:00.183Z,152.47
2023-04-08T13:35:27.981Z,152.97
2023-04-08T13:37:56.018Z,152.83
2023-04-08T13:40:24.017Z,153.30
2023-04-08T13:42:53.188Z,153.03
2023-04-08T13:45:21.265Z,153.00
2023-04-08T13:47:49.455Z,153.13
2023-04-08T13:50:17.342Z,152.67
2023-04-08T13:52:45.129Z,153.77
2023-04-08T13:55:12.912Z,153.33
2023-04-08T13:57:40.750Z,153.27
2023-04-08T14:00:11.477Z,153.87
2023-04-08T14:02:39.345Z,153.40
2023-04-08T14:05:08.331Z,153.30
2023-04-08T14:07:36.157Z,153.50
2023-04-08T14:10:04.175Z,153.33
2023-04-08T14:12:31.992Z,153.17
2023-04-08T14:14:59.784Z,153.17
2023-04-08T14:17:29.068Z,153.60
2023-04-08T14:19:57.153Z,153.37
2023-04-08T14:22:25.048Z,152.97
2023-04-08T14:24:52.866Z,153.13
2023-04-08T14:27:20.746Z,153.43
2023-04-08T14:29:48.554Z,153.20
2023-04-08T14:32:16.736Z,153.87
2023-04-08T14:34:46.016Z,153.37
2023-04-08T14:37:13.809Z,153.57
2023-04-08T14:39:41.695Z,153.33
2023-04-08T14:42:09.508Z,153.37
2023-04-08T14:44:37.315Z,153.90
2023-04-08T14:47:05.136Z,152.63
2023-04-08T14:49:32.988Z,153.67
2023-04-08T14:52:03.163Z,153.47
2023-04-08T14:54:31.006Z,153.27
2023-04-08T14:56:59.127Z,153.50
2023-04-08T14:59:26.918Z,153.03
2023-04-08T15:01:54.820Z,152.93
2023-04-08T15:04:22.711Z,153.13
2023-04-08T15:06:50.585Z,153.50
2023-04-08T15:09:19.804Z,153.87
2023-04-08T15:11:47.594Z,153.33
2023-04-08T15:14:15.416Z,153.90
2023-04-08T15:16:43.256Z,153.13
2023-04-08T15:19:11.528Z,153.20
2023-04-08T15:21:39.374Z,154.07
2023-04-08T15:24:07.307Z,154.07
2023-04-08T15:26:36.460Z,153.90
2023-04-08T15:29:04.343Z,153.67
2023-04-08T15:31:32.450Z,153.87
2023-04-08T15:34:00.350Z,153.37
2023-04-08T15:36:29.050Z,154.20
2023-04-08T15:38:56.967Z,154.23
2023-04-08T15:41:24.797Z,154.27
2023-04-08T15:43:54.897Z,153.00
2023-04-08T15:46:22.862Z,153.23
2023-04-08T15:48:51.540Z,153.80
2023-04-08T15:51:20.226Z,153.83
2023-04-08T15:53:50.267Z,153.40
2023-04-08T15:56:18.415Z,154.33
2023-04-08T15:58:46.895Z,153.17
2023-04-08T16:01:16.762Z,153.57
2023-04-08T16:03:44.697Z,153.67
2023-04-08T16:06:12.662Z,154.27
2023-04-08T16:08:42.048Z,153.40
2023-04-08T16:11:09.973Z,153.80
2023-04-08T16:13:39.036Z,153.97
2023-04-08T16:16:08.637Z,154.07
2023-04-08T16:18:38.850Z,153.67
2023-04-08T16:21:06.716Z,154.10
2023-04-08T16:23:37.488Z,153.13
2023-04-08T16:26:05.585Z,153.93
2023-04-08T16:28:33.725Z,154.20
2023-04-08T16:31:01.755Z,153.40
2023-04-08T16:33:30.818Z,153.80
2023-04-08T16:36:00.817Z,151.40
2023-04-08T16:38:28.897Z,150.60
2023-04-08T16:40:58.769Z,149.07
2023-04-08T16:43:27.190Z,148.53
2023-04-08T16:45:55.066Z,148.60
2023-04-08T16:48:23.220Z,148.23
2023-04-08T16:50:51.030Z,147.70
2023-04-08T16:53:20.273Z,146.70
2023-04-08T16:55:48.108Z,147.27
2023-04-08T16:58:16.051Z,146.60
2023-04-08T17:00:43.884Z,147.03
2023-04-08T17:03:12.122Z,146.23
2023-04-08T17:05:40.221Z,146.57
2023-04-08T17:08:08.139Z,147.00
2023-04-08T17:10:37.400Z,145.83
2023-04-08T17:13:05.985Z,145.57
2023-04-08T17:15:36.520Z,146.10
2023-04-08T17:18:04.497Z,146.17
2023-04-08T17:20:32.387Z,145.53
2023-04-08T17:23:00.348Z,145.57
2023-04-08T17:25:28.171Z,145.93
2023-04-08T17:27:58.060Z,145.03
2023-04-08T17:30:25.925Z,145.40
2023-04-08T17:32:53.769Z,145.23
2023-04-08T17:35:21.647Z,145.50
2023-04-08T17:37:50.133Z,146.23
2023-04-08T17:40:18.327Z,144.93
2023-04-08T17:42:46.498Z,145.43
2023-04-08T17:45:15.949Z,145.90
2023-04-08T17:47:43.917Z,145.13
2023-04-08T17:50:12.084Z,144.57
2023-04-08T17:52:39.992Z,145.57
2023-04-08T17:55:08.865Z,144.90
2023-04-08T17:57:37.410Z,145.47
2023-04-08T18:00:05.841Z,144.87
2023-04-08T18:02:38.126Z,144.03
2023-04-08T18:05:07.656Z,144.57
2023-04-08T18:07:35.643Z,144.90
2023-04-08T18:10:03.543Z,145.00
2023-04-08T18:12:31.761Z,144.97
2023-04-08T18:14:59.900Z,145.03
2023-04-08T18:17:27.873Z,144.43
2023-04-08T18:19:58.694Z,144.37
2023-04-08T18:22:26.521Z,144.73
2023-04-08T18:24:54.330Z,144.70
2023-04-08T18:27:22.299Z,144.33
2023-04-08T18:29:53.171Z,145.13
2023-04-08T18:32:21.123Z,145.03
2023-04-08T18:34:51.873Z,144.87
2023-04-08T18:37:21.719Z,144.63
2023-04-08T18:39:49.866Z,144.23
2023-04-08T18:42:18.139Z,144.47
2023-04-08T18:44:45.986Z,143.97
2023-04-08T18:47:14.059Z,144.17
2023-04-08T18:49:41.854Z,144.50
2023-04-08T18:52:09.837Z,144.43
2023-04-08T18:54:38.949Z,143.63
2023-04-08T18:57:06.842Z,143.80
2023-04-08T18:59:35.121Z,144.07
2023-04-08T19:02:03.061Z,143.83
2023-04-08T19:04:31.110Z,143.83
2023-04-08T19:06:58.952Z,143.70
2023-04-08T19:09:26.766Z,144.33
2023-04-08T19:11:56.064Z,144.90
2023-04-08T19:14:25.296Z,144.27
2023-04-08T19:16:53.122Z,144.47
2023-04-08T19:19:20.945Z,144.73
2023-04-08T19:21:48.897Z,144.30
2023-04-08T19:24:16.776Z,145.23
2023-04-08T19:26:44.601Z,144.47
2023-04-08T19:29:13.787Z,144.73
2023-04-08T19:31:41.880Z,144.33
2023-04-08T19:34:09.716Z,144.83
2023-04-08T19:36:37.531Z,144.67
2023-04-08T19:39:05.674Z,144.20
2023-04-08T19:41:33.490Z,144.93
2023-04-08T19:44:01.645Z,144.87
2023-04-08T19:46:30.941Z,144.67
2023-04-08T19:48:59.086Z,144.47
2023-04-08T19:51:27.305Z,144.30
2023-04-08T19:53:55.222Z,144.30
2023-04-08T19:56:23.106Z,144.73
2023-04-08T19:58:51.865Z,144.70
2023-04-08T20:01:19.891Z,144.53
2023-04-08T20:03:52.084Z,145.00
2023-04-08T20:06:21.051Z,144.83
2023-04-08T20:08:50.088Z,144.53
2023-04-08T20:11:18.234Z,144.37
2023-04-08T20:13:46.917Z,144.33
2023-04-08T20:16:15.074Z,144.40
2023-04-08T20:18:43.118Z,144.50
2023-04-08T20:21:13.846Z,143.37
2023-04-08T20:23:44.184Z,143.70
2023-04-08T20:26:13.053Z,144.07
2023-04-08T20:28:41.193Z,143.87
2023-04-08T20:31:09.142Z,144.67
2023-04-08T20:33:38.118Z,144.03
2023-04-08T20:36:06.072Z,143.77
2023-04-08T20:38:36.734Z,143.97
2023-04-08T20:41:04.856Z,144.43
2023-04-08T20:43:32.702Z,144.50
2023-04-08T20:46:00.968Z,144.20
2023-04-08T20:48:30.196Z,144.93
2023-04-08T20:50:58.369Z,144.40
2023-04-08T20:53:26.384Z,143.50
2023-04-08T20:55:55.626Z,144.77
2023-04-08T20:58:23.434Z,143.60
2023-04-08T21:00:51.323Z,144.30
2023-04-08T21:03:19.703Z,143.70
2023-04-08T21:05:47.598Z,144.40
2023-04-08T21:08:15.413Z,144.27
2023-04-08T21:10:44.261Z,144.50
2023-04-08T21:13:13.491Z,144.43
2023-04-08T21:15:41.285Z,144.50
2023-04-08T21:18:10.926Z,143.93
2023-04-08T21:20:40.934Z,144.77
2023-04-08T21:23:08.765Z,144.37
2023-04-08T21:25:36.623Z,144.33
2023-04-08T21:28:04.473Z,143.70
2023-04-08T21:30:33.642Z,144.50
2023-04-08T21:33:01.496Z,144.27
2023-04-08T21:35:29.400Z,144.17
2023-04-08T21:37:57.292Z,144.00
2023-04-08T21:40:25.151Z,144.63
2023-04-08T21:42:53.113Z,143.57
2023-04-08T21:45:21.588Z,144.47
2023-04-08T21:47:50.946Z,144.07
2023-04-08T21:50:18.973Z,144.03
2023-04-08T21:52:46.778Z,144.40
2023-04-08T21:55:14.605Z,143.90
2023-04-08T21:57:42.761Z,143.90
2023-04-08T22:00:13.566Z,144.33
2023-04-08T22:02:44.191Z,144.43
2023-04-08T22:05:13.641Z,144.53
2023-04-08T22:07:41.542Z,145.27
2023-04-08T22:10:10.084Z,144.20
2023-04-08T22:12:37.915Z,144.33
2023-04-08T22:15:06.633Z,144.03
2023-04-08T22:17:34.469Z,144.73
2023-04-08T22:20:02.303Z,143.60
2023-04-08T22:22:31.473Z,144.03
2023-04-08T22:24:59.275Z,144.10
2023-04-08T22:27:29.060Z,143.67
2023-04-08T22:29:56.883Z,143.33
2023-04-08T22:32:24.794Z,143.83
2023-04-08T22:34:52.632Z,143.83
2023-04-08T22:37:20.638Z,143.63
2023-04-08T22:39:49.785Z,143.73
2023-04-08T22:42:17.570Z,143.87
2023-04-08T22:44:45.357Z,144.40
2023-04-08T22:47:13.181Z,143.83
2023-04-08T22:49:42.626Z,144.13
2023-04-08T22:52:10.701Z,143.53
2023-04-08T22:54:38.606Z,144.00
2023-04-08T22:57:07.763Z,144.47
2023-04-08T22:59:35.665Z,144.37
2023-04-08T23:02:03.563Z,144.17
2023-04-08T23:04:31.491Z,143.90
2023-04-08T23:06:59.287Z,144.23
2023-04-08T23:09:27.134Z,143.97
2023-04-08T23:11:55.045Z,143.17
2023-04-08T23:14:24.221Z,143.90
2023-04-08T23:16:52.056Z,144.13
2023-04-08T23:19:19.821Z,143.87
2023-04-08T23:21:47.685Z,143.80
2023-04-08T23:24:15.478Z,143.73
2023-04-08T23:26:43.296Z,144.17
2023-04-08T23:29:11.462Z,143.80
2023-04-08T23:31:40.717Z,143.77
2023-04-08T23:34:08.630Z,144.03
2023-04-08T23:36:36.503Z,143.30
2023-04-08T23:39:04.585Z,143.97
2023-04-08T23:41:32.391Z,143.77
2023-04-08T23:44:00.291Z,141.83
2023-04-08T23:46:28.214Z,143.90
2023-04-08T23:48:57.532Z,143.37
2023-04-08T23:51:25.799Z,142.67
2023-04-08T23:53:53.582Z,143.60
2023-04-08T23:56:21.405Z,143.00
2023-04-08T23:58:49.252Z,143.57
